Time;durP1;ratioP1;P1;durP2;ratioP2;P2;SDS_P1;SDS_P2;PMS_P1;PMS_P2;Temp;Humidity;BMP_temperature;BMP_pressure;BME280_temperature;BME280_humidity;BME280_pressure;Samples;Min_cycle;Max_cycle;Signal;HPM_P1;HPM_P2
2023/08/04 00:04:17;;;;;;;0.97;0.80;;;22.40;29.90;;;;;;10275186;28;20544;-76
2023/08/04 00:09:21;;;;;;;0.83;0.83;;;22.30;30.30;;;;;;10275063;28;20236;-77
2023/08/04 00:14:24;;;;;;;0.87;0.87;;;22.20;30.10;;;;;;10270563;28;20227;-77
2023/08/04 00:19:28;;;;;;;1.00;0.90;;;22.20;30.50;;;;;;10281068;28;20239;-77
2023/08/04 00:24:31;;;;;;;0.87;0.80;;;22.20;31.00;;;;;;10267671;28;20240;-77
2023/08/04 00:29:34;;;;;;;0.90;0.90;;;22.20;30.60;;;;;;10269144;28;20326;-76
2023/08/04 00:34:39;;;;;;;0.73;0.70;;;22.20;30.70;;;;;;10270083;28;20227;-76
2023/08/04 00:39:42;;;;;;;0.80;0.80;;;22.20;31.20;;;;;;10274405;28;20243;-76
2023/08/04 00:44:45;;;;;;;1.90;0.93;;;22.20;30.80;;;;;;10278087;28;20232;-77
2023/08/04 00:49:50;;;;;;;0.80;0.80;;;22.20;31.10;;;;;;10267756;28;20243;-77
2023/08/04 00:54:53;;;;;;;1.27;0.80;;;22.20;31.30;;;;;;10271512;28;20636;-77
2023/08/04 00:59:56;;;;;;;1.00;1.00;;;22.20;30.70;;;;;;10272374;28;20240;-76
2023/08/04 01:05:02;;;;;;;0.90;0.80;;;22.10;30.80;;;;;;10261255;28;20244;-76
2023/08/04 01:10:12;;;;;;;1.20;0.70;;;22.00;31.60;;;;;;10275445;28;20708;-76
2023/08/04 01:15:17;;;;;;;0.80;0.80;;;21.90;32.20;;;;;;10272130;28;20262;-76
2023/08/04 01:20:22;;;;;;;0.80;0.80;;;21.90;32.10;;;;;;10273117;28;20314;-77
2023/08/04 01:25:30;;;;;;;1.03;0.90;;;21.80;32.40;;;;;;10273122;28;20235;-76
2023/08/04 01:30:34;;;;;;;1.77;1.10;;;21.70;32.80;;;;;;10271984;28;20777;-76
2023/08/04 01:35:37;;;;;;;1.20;1.10;;;21.60;32.10;;;;;;10281335;28;20227;-76
2023/08/04 01:40:42;;;;;;;1.70;1.20;;;21.60;32.40;;;;;;10271079;28;20231;-76
2023/08/04 01:45:45;;;;;;;1.77;1.10;;;21.50;33.40;;;;;;10275841;28;20240;-76
2023/08/04 01:50:48;;;;;;;0.90;0.90;;;21.40;33.10;;;;;;10275765;28;20232;-76
2023/08/04 01:55:53;;;;;;;1.93;0.97;;;21.30;33.40;;;;;;10276750;28;20236;-76
2023/08/04 02:00:56;;;;;;;1.23;1.00;;;21.20;34.40;;;;;;10286562;28;20327;-76
2023/08/04 02:05:59;;;;;;;2.73;1.30;;;21.10;34.70;;;;;;10285754;28;20240;-76
2023/08/04 02:11:04;;;;;;;3.37;1.00;;;21.00;34.30;;;;;;10270845;28;20233;-76
2023/08/04 02:16:07;;;;;;;1.83;0.93;;;21.00;35.10;;;;;;10276457;28;20245;-76
2023/08/04 02:21:10;;;;;;;1.13;0.90;;;20.90;34.50;;;;;;10278062;28;20248;-76
2023/08/04 02:26:15;;;;;;;1.53;0.90;;;20.90;34.60;;;;;;10272253;28;20242;-76
2023/08/04 02:31:18;;;;;;;1.53;1.30;;;20.90;35.30;;;;;;10274411;28;20327;-76
2023/08/04 02:36:22;;;;;;;1.90;1.00;;;20.90;34.90;;;;;;10271479;28;20235;-76
2023/08/04 02:41:26;;;;;;;1.57;1.20;;;20.80;35.10;;;;;;10278481;28;20231;-77
2023/08/04 02:46:30;;;;;;;1.17;1.00;;;20.80;35.70;;;;;;10269843;28;20259;-76
2023/08/04 02:51:33;;;;;;;1.40;1.03;;;20.80;35.00;;;;;;10265275;28;20289;-76
2023/08/04 02:56:38;;;;;;;1.73;1.00;;;20.80;35.30;;;;;;10269984;28;20237;-76
2023/08/04 03:01:41;;;;;;;1.03;1.00;;;20.80;36.10;;;;;;10287438;28;20315;-76
2023/08/04 03:06:44;;;;;;;2.03;1.10;;;20.90;35.40;;;;;;10284397;28;20968;-76
2023/08/04 03:11:49;;;;;;;1.20;1.10;;;20.90;35.60;;;;;;10275333;28;20239;-77
2023/08/04 03:16:52;;;;;;;2.23;1.20;;;20.90;36.20;;;;;;10284070;28;20231;-76
2023/08/04 03:21:55;;;;;;;1.00;0.90;;;20.80;35.60;;;;;;10273356;28;20282;-76
2023/08/04 03:26:59;;;;;;;1.10;1.00;;;20.70;35.60;;;;;;10283402;28;20247;-77
2023/08/04 03:32:03;;;;;;;1.10;1.00;;;20.60;36.60;;;;;;10268052;28;20227;-77
2023/08/04 03:37:07;;;;;;;1.10;1.00;;;20.70;36.30;;;;;;10282267;28;20246;-76
2023/08/04 03:42:11;;;;;;;2.30;1.00;;;20.60;35.90;;;;;;10265871;28;20246;-77
2023/08/04 03:47:14;;;;;;;2.93;1.07;;;20.60;36.70;;;;;;10280174;28;20275;-77
2023/08/04 03:52:17;;;;;;;0.90;0.90;;;20.60;36.20;;;;;;10258419;28;20236;-76
2023/08/04 03:57:22;;;;;;;2.17;1.00;;;20.60;36.20;;;;;;10282462;28;20227;-77
2023/08/04 04:02:25;;;;;;;1.07;0.97;;;20.60;37.00;;;;;;10275903;28;20241;-76
2023/08/04 04:07:28;;;;;;;1.83;1.00;;;20.60;36.50;;;;;;10275067;28;20666;-77
2023/08/04 04:12:34;;;;;;;1.57;1.07;;;20.70;36.50;;;;;;10266601;28;20720;-76
2023/08/04 04:17:37;;;;;;;1.10;0.87;;;20.70;37.10;;;;;;10285008;28;20262;-76
2023/08/04 04:22:40;;;;;;;1.03;1.00;;;20.70;36.50;;;;;;10273059;28;20241;-76
2023/08/04 04:27:45;;;;;;;1.00;1.00;;;20.70;36.30;;;;;;10273218;28;20482;-76
2023/08/04 04:32:48;;;;;;;1.63;0.90;;;20.60;37.00;;;;;;10272781;28;20339;-77
2023/08/04 04:37:51;;;;;;;1.40;1.00;;;20.50;36.90;;;;;;10264236;28;20319;-77
2023/08/04 04:42:55;;;;;;;1.67;1.00;;;20.50;36.90;;;;;;10267956;28;20267;-77
2023/08/04 04:47:59;;;;;;;1.50;1.10;;;20.40;37.00;;;;;;10260410;28;20239;-77
2023/08/04 04:53:04;;;;;;;1.50;1.20;;;20.40;36.90;;;;;;10257918;28;20228;-77
2023/08/04 04:58:09;;;;;;;1.17;0.90;;;20.30;36.80;;;;;;10256968;28;20244;-77
2023/08/04 05:03:12;;;;;;;3.83;1.13;;;20.20;37.70;;;;;;10264510;28;20223;-77
2023/08/04 05:08:15;;;;;;;1.60;1.10;;;20.20;37.20;;;;;;10274825;28;20240;-77
2023/08/04 05:13:20;;;;;;;1.23;1.00;;;20.30;37.20;;;;;;10279368;28;20975;-77
2023/08/04 05:18:23;;;;;;;1.23;1.00;;;20.30;38.00;;;;;;10281087;28;20259;-76
2023/08/04 05:23:30;;;;;;;1.03;1.00;;;20.20;37.40;;;;;;10293174;28;20761;-75
2023/08/04 05:28:34;;;;;;;1.30;1.13;;;20.30;38.60;;;;;;10264489;28;20286;-75
2023/08/04 05:33:38;;;;;;;1.07;0.83;;;20.30;38.10;;;;;;10281682;28;20227;-76
2023/08/04 05:38:44;;;;;;;2.03;1.00;;;20.30;37.90;;;;;;10292341;28;20232;-75
2023/08/04 05:43:48;;;;;;;1.43;1.23;;;20.40;37.70;;;;;;10291332;28;20235;-76
2023/08/04 05:48:51;;;;;;;1.27;1.10;;;20.40;38.50;;;;;;10290297;28;20243;-76
2023/08/04 05:53:54;;;;;;;0.87;0.80;;;20.30;38.00;;;;;;10291967;28;20895;-75
2023/08/04 05:59:00;;;;;;;1.27;1.17;;;20.40;38.30;;;;;;10274041;28;20335;-75
2023/08/04 06:04:03;;;;;;;2.40;2.20;;;20.40;38.80;;;;;;10290019;28;20239;-76
2023/08/04 06:09:07;;;;;;;29.20;23.60;;;20.50;38.10;;;;;;10283795;28;20288;-77
2023/08/04 06:14:11;;;;;;;11.67;8.03;;;20.50;38.00;;;;;;10284349;28;20236;-74
2023/08/04 06:19:14;;;;;;;7.20;6.60;;;20.50;38.50;;;;;;10271660;28;20244;-76
2023/08/04 06:24:27;;;;;;;4.73;2.90;;;20.50;38.30;;;;;;10270266;28;20270;-73
2023/08/04 06:29:31;;;;;;;2.10;1.97;;;20.50;39.20;;;;;;10280438;28;20255;-74
2023/08/04 06:34:34;;;;;;;2.87;2.57;;;20.60;38.70;;;;;;10264839;28;20232;-73
2023/08/04 06:39:38;;;;;;;6.80;5.13;;;20.70;38.40;;;;;;10266627;28;20996;-73
2023/08/04 06:44:42;;;;;;;3.00;2.70;;;20.70;38.20;;;;;;10269643;28;20746;-73
2023/08/04 06:49:46;;;;;;;1.60;1.50;;;20.80;38.40;;;;;;10272032;28;20324;-73
2023/08/04 06:54:51;;;;;;;1.80;1.20;;;20.80;38.20;;;;;;10278274;28;20267;-73
2023/08/04 06:59:55;;;;;;;1.10;1.10;;;20.80;38.30;;;;;;10253750;28;20240;-73
2023/08/04 07:04:58;;;;;;;1.10;1.10;;;20.90;38.60;;;;;;10270033;28;20354;-73
2023/08/04 07:10:03;;;;;;;0.97;0.87;;;20.90;38.00;;;;;;10262712;28;20331;-73
2023/08/04 07:15:09;;;;;;;1.00;0.90;;;21.00;37.60;;;;;;10266160;28;20338;-73
2023/08/04 07:20:12;;;;;;;1.43;0.87;;;21.00;38.40;;;;;;10269082;28;20479;-73
2023/08/04 07:25:16;;;;;;;1.00;0.80;;;21.10;38.10;;;;;;10278910;28;20258;-73
2023/08/04 07:30:20;;;;;;;1.97;1.30;;;21.20;37.60;;;;;;10265423;28;20338;-73
2023/08/04 07:35:23;;;;;;;1.17;0.90;;;21.30;37.70;;;;;;10260794;28;20648;-73
2023/08/04 07:40:26;;;;;;;0.70;0.70;;;21.40;37.70;;;;;;10264435;28;20731;-73
2023/08/04 07:45:31;;;;;;;0.87;0.87;;;21.40;37.70;;;;;;10271494;28;20235;-73
2023/08/04 07:50:36;;;;;;;0.80;0.80;;;21.40;37.70;;;;;;10267501;28;20236;-73
2023/08/04 07:55:40;;;;;;;0.70;0.70;;;21.50;37.80;;;;;;10257703;28;20236;-73
2023/08/04 08:00:44;;;;;;;0.70;0.70;;;21.70;37.30;;;;;;10269478;28;20235;-73
2023/08/04 08:05:48;;;;;;;0.80;0.80;;;21.70;37.60;;;;;;10253121;28;20297;-73
2023/08/04 08:10:51;;;;;;;1.70;0.80;;;21.80;37.60;;;;;;10273345;28;20677;-73
2023/08/04 08:15:57;;;;;;;0.80;0.80;;;21.80;37.80;;;;;;10275522;28;20807;-73
2023/08/04 08:21:00;;;;;;;0.83;0.77;;;21.90;37.90;;;;;;10275054;28;20243;-73
2023/08/04 08:26:04;;;;;;;0.90;0.90;;;22.00;37.30;;;;;;10263832;28;20326;-73
2023/08/04 08:31:09;;;;;;;0.83;0.73;;;22.10;37.20;;;;;;10259140;28;20244;-73
2023/08/04 08:36:12;;;;;;;0.93;0.90;;;22.10;37.50;;;;;;10281365;28;20240;-73
2023/08/04 08:41:15;;;;;;;0.90;0.90;;;22.20;37.20;;;;;;10274385;28;20244;-73
2023/08/04 08:46:20;;;;;;;0.80;0.80;;;22.30;36.70;;;;;;10262464;28;20726;-73
2023/08/04 08:51:25;;;;;;;0.60;0.60;;;22.30;36.80;;;;;;10266221;28;20689;-73
2023/08/04 08:56:29;;;;;;;0.70;0.70;;;22.40;36.80;;;;;;10265829;28;20236;-73
2023/08/04 09:01:34;;;;;;;1.13;0.90;;;22.50;36.40;;;;;;10262297;28;20239;-73
2023/08/04 09:06:37;;;;;;;1.50;1.00;;;22.50;36.60;;;;;;10265335;28;20236;-73
2023/08/04 09:11:40;;;;;;;0.90;0.90;;;22.50;36.50;;;;;;10258357;28;20293;-73
2023/08/04 09:16:48;;;;;;;0.70;0.70;;;22.60;36.00;;;;;;10271951;28;20315;-73
2023/08/04 09:21:58;;;;;;;0.87;0.83;;;22.60;36.30;;;;;;10265450;28;20322;-73
2023/08/04 09:27:01;;;;;;;2.13;1.10;;;22.60;36.50;;;;;;10250237;28;20264;-73
2023/08/04 09:32:13;;;;;;;1.03;0.93;;;22.60;36.20;;;;;;10254974;28;20667;-73
2023/08/04 09:37:17;;;;;;;1.63;1.10;;;22.60;36.00;;;;;;10264798;28;20331;-73
2023/08/04 09:42:21;;;;;;;2.70;1.20;;;22.70;36.00;;;;;;10274131;28;20810;-73
2023/08/04 09:47:28;;;;;;;1.03;1.00;;;22.70;35.80;;;;;;10270155;28;20267;-74
2023/08/04 09:52:31;;;;;;;0.87;0.83;;;22.70;35.50;;;;;;10255225;28;20972;-73
2023/08/04 09:57:35;;;;;;;0.90;0.90;;;22.70;35.70;;;;;;10270367;28;20235;-73
2023/08/04 10:02:40;;;;;;;1.20;0.80;;;22.70;35.80;;;;;;10263849;28;20310;-73
2023/08/04 10:07:44;;;;;;;1.13;1.00;;;22.70;35.70;;;;;;10272106;28;20336;-73
2023/08/04 10:12:47;;;;;;;0.97;0.87;;;22.80;35.40;;;;;;10277367;28;20227;-73
2023/08/04 10:17:52;;;;;;;0.97;0.83;;;22.70;35.50;;;;;;10282550;28;20240;-73
2023/08/04 10:22:55;;;;;;;0.80;0.80;;;22.70;35.60;;;;;;10260940;28;20228;-73
2023/08/04 10:27:59;;;;;;;0.97;0.97;;;22.80;35.80;;;;;;10282971;28;20232;-73
2023/08/04 10:33:12;;;;;;;1.17;0.80;;;22.90;35.90;;;;;;10279664;28;20243;-73
2023/08/04 10:38:20;;;;;;;1.03;0.90;;;23.00;35.60;;;;;;10276338;28;20318;-73
2023/08/04 10:43:23;;;;;;;1.40;0.90;;;23.10;35.40;;;;;;10280003;28;20619;-73
2023/08/04 10:48:28;;;;;;;0.60;0.60;;;23.10;35.60;;;;;;10277760;28;21492;-73
2023/08/04 10:53:32;;;;;;;1.00;1.00;;;23.10;35.50;;;;;;10270652;28;20242;-73
2023/08/04 10:58:36;;;;;;;1.27;0.80;;;23.20;35.50;;;;;;10277165;28;20236;-73
2023/08/04 11:03:40;;;;;;;1.00;1.00;;;23.30;35.50;;;;;;10269180;28;20238;-73
2023/08/04 11:08:44;;;;;;;1.70;1.00;;;23.30;35.40;;;;;;10274047;28;20236;-73
2023/08/04 11:13:47;;;;;;;1.03;0.80;;;23.40;35.20;;;;;;10270762;28;20232;-74
2023/08/04 11:18:53;;;;;;;1.07;0.97;;;23.50;35.10;;;;;;10253030;28;20275;-73
2023/08/04 11:23:56;;;;;;;0.83;0.83;;;23.50;35.00;;;;;;10278714;28;20231;-73
2023/08/04 11:29:00;;;;;;;0.90;0.90;;;23.50;34.80;;;;;;10260346;28;20274;-73
2023/08/04 11:34:04;;;;;;;1.00;0.90;;;23.50;34.70;;;;;;10289091;28;20235;-73
2023/08/04 11:39:07;;;;;;;1.07;0.97;;;23.60;34.70;;;;;;10270582;28;20319;-73
2023/08/04 11:44:11;;;;;;;1.20;0.80;;;23.60;34.80;;;;;;10275729;28;20243;-73
2023/08/04 11:49:16;;;;;;;0.87;0.87;;;23.60;34.50;;;;;;10275156;28;20650;-73
2023/08/04 11:54:20;;;;;;;1.00;0.90;;;23.60;34.10;;;;;;10275964;28;20238;-73
2023/08/04 11:59:24;;;;;;;0.77;0.77;;;23.70;34.30;;;;;;10275365;28;20243;-73
2023/08/04 12:04:29;;;;;;;1.27;0.97;;;23.80;34.60;;;;;;10279272;28;20290;-73
2023/08/04 12:09:33;;;;;;;1.00;0.90;;;23.90;34.20;;;;;;10264163;28;20247;-73
2023/08/04 12:14:36;;;;;;;0.70;0.70;;;24.00;34.10;;;;;;10256505;28;20236;-73
2023/08/04 12:20:01;;;;;;;1.23;1.13;;;24.20;33.80;;;;;;10272852;28;20615;-74
2023/08/04 12:25:05;;;;;;;0.97;0.90;;;24.40;33.00;;;;;;10273130;28;20654;-73
2023/08/04 12:30:09;;;;;;;0.80;0.80;;;24.50;33.20;;;;;;10268443;28;20240;-73
2023/08/04 12:35:14;;;;;;;1.00;0.90;;;24.60;33.20;;;;;;10274353;28;20655;-74
2023/08/04 12:40:17;;;;;;;1.20;0.90;;;24.70;32.50;;;;;;10259347;28;20278;-73
2023/08/04 12:45:20;;;;;;;1.00;0.90;;;24.80;32.90;;;;;;10272411;28;20234;-73
2023/08/04 12:50:25;;;;;;;1.00;0.90;;;24.90;32.80;;;;;;10252307;28;20715;-73
2023/08/04 12:55:28;;;;;;;0.90;0.83;;;24.90;32.30;;;;;;10267297;28;20598;-73
2023/08/04 13:00:31;;;;;;;1.43;1.00;;;25.10;32.90;;;;;;10269074;28;20729;-73
2023/08/04 13:05:36;;;;;;;1.00;0.90;;;25.10;32.00;;;;;;10270262;28;20235;-73
2023/08/04 13:10:39;;;;;;;1.17;0.80;;;25.20;31.30;;;;;;10264392;28;20553;-73
2023/08/04 13:15:45;;;;;;;0.93;0.93;;;25.20;31.70;;;;;;10263175;28;20235;-73
2023/08/04 13:20:50;;;;;;;1.10;1.10;;;25.30;30.70;;;;;;10264670;28;20243;-73
2023/08/04 13:25:53;;;;;;;0.90;0.90;;;25.30;31.20;;;;;;10269487;28;20232;-73
2023/08/04 13:30:59;;;;;;;2.50;1.00;;;25.40;31.50;;;;;;10257836;28;20663;-73
2023/08/04 13:36:04;;;;;;;0.90;0.90;;;25.40;31.50;;;;;;10281742;28;20716;-73
2023/08/04 13:41:07;;;;;;;0.90;0.90;;;25.40;30.60;;;;;;10257044;28;20319;-73
2023/08/04 13:46:10;;;;;;;0.90;0.90;;;25.50;30.90;;;;;;10267540;28;20237;-73
2023/08/04 13:51:15;;;;;;;1.20;1.10;;;25.50;30.90;;;;;;10284886;28;20248;-73
2023/08/04 13:56:29;;;;;;;1.17;1.00;;;25.50;30.20;;;;;;10269205;28;20790;-73
2023/08/04 14:01:32;;;;;;;1.07;1.00;;;25.60;30.60;;;;;;10287135;28;20241;-73
2023/08/04 14:06:37;;;;;;;2.10;1.10;;;25.60;30.40;;;;;;10274739;28;20240;-73
2023/08/04 14:11:40;;;;;;;1.10;1.00;;;25.60;30.30;;;;;;10278961;28;20954;-73
2023/08/04 14:16:43;;;;;;;1.03;1.00;;;25.70;30.40;;;;;;10263162;28;20830;-73
2023/08/04 14:21:48;;;;;;;1.10;0.90;;;25.70;30.40;;;;;;10265902;28;20254;-73
2023/08/04 14:26:51;;;;;;;0.90;0.73;;;25.80;29.80;;;;;;10279851;28;20239;-73
2023/08/04 14:31:54;;;;;;;0.80;0.80;;;25.80;30.00;;;;;;10282766;28;20235;-73
2023/08/04 14:36:59;;;;;;;1.23;0.93;;;25.90;30.00;;;;;;10285805;28;20286;-73
2023/08/04 14:42:02;;;;;;;0.90;0.90;;;25.90;29.20;;;;;;10267311;28;20235;-73
2023/08/04 14:47:06;;;;;;;1.00;0.97;;;25.90;29.70;;;;;;10270566;28;20245;-73
2023/08/04 14:52:11;;;;;;;0.93;0.93;;;25.90;29.60;;;;;;10271548;28;20235;-73
2023/08/04 14:57:14;;;;;;;1.00;0.90;;;26.00;29.40;;;;;;10270268;28;20668;-73
2023/08/04 15:02:17;;;;;;;1.47;1.07;;;26.00;30.00;;;;;;10269105;28;20666;-73
2023/08/04 15:07:22;;;;;;;1.10;1.00;;;26.00;30.00;;;;;;10270287;28;20677;-73
2023/08/04 15:12:25;;;;;;;1.40;1.30;;;26.00;29.60;;;;;;10275017;28;20233;-73
2023/08/04 15:17:29;;;;;;;1.17;1.07;;;26.00;29.80;;;;;;10269138;28;20255;-73
2023/08/04 15:22:34;;;;;;;1.10;1.00;;;26.00;30.00;;;;;;10280159;28;20583;-73
2023/08/04 15:27:38;;;;;;;1.40;1.10;;;26.00;29.90;;;;;;10273951;28;20239;-73
2023/08/04 15:32:42;;;;;;;1.03;0.93;;;26.10;30.00;;;;;;10282404;28;20246;-73
2023/08/04 15:37:46;;;;;;;1.30;0.97;;;26.10;30.00;;;;;;10275831;28;20611;-73
2023/08/04 15:42:50;;;;;;;1.17;1.07;;;26.10;29.70;;;;;;10273327;28;20232;-73
2023/08/04 15:47:53;;;;;;;1.57;1.10;;;26.10;30.10;;;;;;10283900;28;20239;-73
2023/08/04 15:52:58;;;;;;;1.20;1.00;;;26.10;30.00;;;;;;10268215;28;20247;-73
2023/08/04 15:58:01;;;;;;;1.00;1.00;;;26.10;30.30;;;;;;10249388;28;20250;-73
2023/08/04 16:03:04;;;;;;;1.17;0.93;;;26.00;30.30;;;;;;10287412;28;20348;-73
2023/08/04 16:08:08;;;;;;;1.43;0.93;;;26.00;30.40;;;;;;10257826;28;20243;-73
2023/08/04 16:13:12;;;;;;;1.07;0.97;;;26.00;29.70;;;;;;10264379;28;20238;-73
2023/08/04 16:18:15;;;;;;;1.73;0.80;;;25.80;29.70;;;;;;10265169;28;20734;-73
2023/08/04 16:23:19;;;;;;;0.80;0.80;;;25.70;29.50;;;;;;10264918;28;20261;-73
2023/08/04 16:28:23;;;;;;;0.70;0.70;;;25.50;28.90;;;;;;10261380;28;20231;-73
2023/08/04 16:33:26;;;;;;;0.73;0.73;;;25.40;28.90;;;;;;10276214;28;20236;-73
2023/08/04 16:38:31;;;;;;;0.70;0.70;;;25.30;29.00;;;;;;10265079;28;20274;-73
2023/08/04 16:43:34;;;;;;;0.50;0.50;;;25.10;28.90;;;;;;10258986;28;20231;-72
2023/08/04 16:48:37;;;;;;;0.60;0.60;;;24.90;29.20;;;;;;10263973;28;20271;-73
2023/08/04 16:53:41;;;;;;;0.70;0.70;;;24.80;29.50;;;;;;10268373;28;20232;-73
2023/08/04 16:58:45;;;;;;;0.60;0.60;;;24.70;29.50;;;;;;10274792;28;20254;-72
2023/08/04 17:03:48;;;;;;;0.60;0.60;;;24.60;29.70;;;;;;10273544;28;20350;-73
2023/08/04 17:08:54;;;;;;;0.60;0.60;;;24.50;29.90;;;;;;10284351;28;20371;-73
2023/08/04 17:13:57;;;;;;;0.60;0.60;;;24.50;30.00;;;;;;10281592;28;20237;-73
2023/08/04 17:19:00;;;;;;;1.20;0.80;;;24.50;30.10;;;;;;10273664;28;20928;-72
2023/08/04 17:24:05;;;;;;;0.70;0.70;;;24.40;30.00;;;;;;10281825;28;20239;-73
2023/08/04 17:29:08;;;;;;;1.00;0.70;;;24.40;30.10;;;;;;10279459;28;20323;-73
2023/08/04 17:34:11;;;;;;;0.70;0.70;;;24.30;30.20;;;;;;10257241;28;20613;-72
2023/08/04 17:39:16;;;;;;;0.60;0.60;;;24.30;30.40;;;;;;10284617;28;20728;-73
2023/08/04 17:44:19;;;;;;;0.70;0.70;;;24.10;30.70;;;;;;10264739;28;20235;-72
2023/08/04 17:49:22;;;;;;;1.07;0.80;;;24.10;30.80;;;;;;10272436;28;20239;-73
2023/08/04 17:54:27;;;;;;;0.67;0.67;;;24.00;30.90;;;;;;10283337;28;20231;-73
2023/08/04 17:59:30;;;;;;;0.70;0.70;;;23.90;31.20;;;;;;10275289;28;20583;-73
2023/08/04 18:04:33;;;;;;;0.60;0.60;;;23.90;31.40;;;;;;10275512;28;20235;-73
2023/08/04 18:09:38;;;;;;;1.47;0.73;;;23.90;31.50;;;;;;10276742;28;20244;-73
2023/08/04 18:14:41;;;;;;;1.33;0.60;;;23.90;31.90;;;;;;10284869;28;20227;-73
2023/08/04 18:19:44;;;;;;;0.67;0.67;;;23.80;31.70;;;;;;10264863;28;20286;-73
2023/08/04 18:24:48;;;;;;;0.60;0.60;;;23.80;31.70;;;;;;10269557;28;20224;-73
2023/08/04 18:29:51;;;;;;;0.90;0.73;;;23.80;31.90;;;;;;10260662;28;20240;-73
2023/08/04 18:34:55;;;;;;;1.17;1.07;;;23.70;31.60;;;;;;10278765;28;20243;-73
2023/08/04 18:40:04;;;;;;;5.63;4.53;;;23.60;31.70;;;;;;10270493;28;20909;-73
2023/08/04 18:45:08;;;;;;;2.20;1.90;;;23.50;32.10;;;;;;10276149;28;20316;-73
2023/08/04 18:50:13;;;;;;;1.50;1.40;;;23.30;32.40;;;;;;10279538;28;20243;-73
2023/08/04 18:55:18;;;;;;;1.20;1.10;;;23.20;32.70;;;;;;10278585;28;20240;-73
2023/08/04 19:00:24;;;;;;;1.77;0.87;;;23.20;32.90;;;;;;10264882;28;20263;-73
2023/08/04 19:05:27;;;;;;;0.80;0.80;;;23.10;32.80;;;;;;10280921;28;20243;-73
2023/08/04 19:10:32;;;;;;;0.90;0.90;;;23.10;33.60;;;;;;10281335;28;20243;-73
2023/08/04 19:15:35;;;;;;;0.73;0.73;;;23.10;34.00;;;;;;10277094;28;20239;-73
2023/08/04 19:20:38;;;;;;;0.90;0.90;;;23.10;33.50;;;;;;10263743;28;20236;-73
2023/08/04 19:25:42;;;;;;;1.80;1.10;;;23.00;33.60;;;;;;10276429;28;20442;-73
2023/08/04 19:30:46;;;;;;;1.70;1.00;;;23.10;33.80;;;;;;10283486;28;20322;-73
2023/08/04 19:35:49;;;;;;;1.33;1.10;;;23.00;33.60;;;;;;10276426;28;20810;-73
2023/08/04 19:40:54;;;;;;;1.10;1.00;;;23.00;33.70;;;;;;10282581;28;20355;-73
2023/08/04 19:46:01;;;;;;;1.17;1.17;;;23.00;34.00;;;;;;10253093;28;20246;-72
2023/08/04 19:51:11;;;;;;;1.40;1.30;;;23.00;33.80;;;;;;10266516;28;20692;-73
2023/08/04 19:56:16;;;;;;;1.10;1.00;;;22.90;34.10;;;;;;10269006;28;20314;-73
2023/08/04 20:01:19;;;;;;;1.20;1.10;;;22.90;34.10;;;;;;10257640;28;20357;-73
2023/08/04 20:06:22;;;;;;;1.03;0.93;;;22.80;33.90;;;;;;10267441;28;20239;-73
2023/08/04 20:11:27;;;;;;;1.20;1.10;;;22.80;34.00;;;;;;10259146;28;20310;-73
2023/08/04 20:16:30;;;;;;;1.20;0.83;;;22.80;34.60;;;;;;10263101;28;20428;-73
2023/08/04 20:21:33;;;;;;;1.00;0.80;;;22.80;33.90;;;;;;10272933;28;20817;-73
2023/08/04 20:26:38;;;;;;;2.23;0.70;;;22.70;33.70;;;;;;10281773;28;20246;-73
2023/08/04 20:31:41;;;;;;;0.80;0.80;;;22.60;34.10;;;;;;10268613;28;20243;-73
2023/08/04 20:36:44;;;;;;;1.27;0.97;;;22.50;33.90;;;;;;10264407;28;20728;-73
2023/08/04 20:41:49;;;;;;;1.10;1.00;;;22.50;34.40;;;;;;10284393;28;20235;-73
2023/08/04 20:46:52;;;;;;;0.90;0.90;;;22.40;34.80;;;;;;10267959;28;20801;-73
2023/08/04 20:51:55;;;;;;;1.63;1.10;;;22.30;34.50;;;;;;10277294;28;20239;-73
2023/08/04 20:56:59;;;;;;;3.10;1.23;;;22.30;34.70;;;;;;10279409;28;20403;-73
2023/08/04 21:02:03;;;;;;;1.60;1.00;;;22.30;35.10;;;;;;10261932;28;20228;-73
2023/08/04 21:07:08;;;;;;;1.80;1.07;;;22.30;35.00;;;;;;10271619;28;20928;-73
2023/08/04 21:12:12;;;;;;;1.00;1.00;;;22.30;35.60;;;;;;10279942;28;20239;-73
2023/08/04 21:17:16;;;;;;;1.10;1.00;;;22.20;35.70;;;;;;10259827;28;20239;-73
2023/08/04 21:22:19;;;;;;;1.00;1.00;;;22.20;35.30;;;;;;10276873;28;20664;-73
2023/08/04 21:27:23;;;;;;;2.17;1.20;;;22.20;35.40;;;;;;10276337;28;20742;-73
2023/08/04 21:32:26;;;;;;;2.87;1.20;;;22.10;35.70;;;;;;10274073;28;20242;-73
2023/08/04 21:37:30;;;;;;;0.90;0.90;;;22.10;35.60;;;;;;10262002;28;20236;-73
2023/08/04 21:42:34;;;;;;;1.03;1.00;;;22.10;35.90;;;;;;10261759;28;20663;-73
2023/08/04 21:47:37;;;;;;;1.03;1.03;;;22.10;36.50;;;;;;10272882;28;20236;-73
2023/08/04 21:52:41;;;;;;;1.53;1.03;;;22.10;36.00;;;;;;10273026;28;20263;-73
2023/08/04 21:57:47;;;;;;;1.40;1.30;;;22.00;35.80;;;;;;10288375;28;20235;-73
2023/08/04 22:02:50;;;;;;;1.20;1.10;;;22.00;36.40;;;;;;10271576;28;20235;-73
2023/08/04 22:07:53;;;;;;;1.80;1.20;;;22.00;36.20;;;;;;10279344;28;20323;-73
2023/08/04 22:12:58;;;;;;;2.13;1.20;;;21.90;36.20;;;;;;10279481;28;20759;-73
2023/08/04 22:18:01;;;;;;;1.10;1.10;;;21.90;36.70;;;;;;10279389;28;20244;-73
2023/08/04 22:23:04;;;;;;;2.43;1.20;;;21.80;36.40;;;;;;10285976;28;20961;-73
2023/08/04 22:28:09;;;;;;;1.87;1.03;;;21.80;36.50;;;;;;10285530;28;20242;-73
2023/08/04 22:33:13;;;;;;;2.00;1.33;;;21.80;36.90;;;;;;10280303;28;20251;-73
2023/08/04 22:38:16;;;;;;;1.37;1.17;;;21.70;36.60;;;;;;10287534;28;20244;-73
2023/08/04 22:43:21;;;;;;;1.20;1.10;;;21.60;36.70;;;;;;10270061;28;20881;-73
2023/08/04 22:48:24;;;;;;;1.20;1.10;;;21.50;37.60;;;;;;10284419;28;20236;-73
2023/08/04 22:53:27;;;;;;;1.30;1.13;;;21.50;37.50;;;;;;10283449;28;20242;-73
2023/08/04 22:58:31;;;;;;;1.97;1.30;;;21.40;37.20;;;;;;10275151;28;20243;-73
2023/08/04 23:03:35;;;;;;;1.67;1.43;;;21.40;37.70;;;;;;10276480;28;20998;-73
2023/08/04 23:08:38;;;;;;;1.50;1.40;;;21.40;37.70;;;;;;10268160;28;20327;-73
2023/08/04 23:13:42;;;;;;;3.40;1.47;;;21.40;37.70;;;;;;10278306;28;20235;-73
2023/08/04 23:18:45;;;;;;;1.63;1.53;;;21.40;37.70;;;;;;10271874;28;20238;-73
2023/08/04 23:23:48;;;;;;;2.10;1.57;;;21.40;37.70;;;;;;10286497;28;20763;-73
2023/08/04 23:28:53;;;;;;;1.50;1.30;;;21.30;37.60;;;;;;10272530;28;20718;-74
2023/08/04 23:33:56;;;;;;;2.50;1.20;;;21.30;37.90;;;;;;10270097;28;20242;-74
2023/08/04 23:38:59;;;;;;;1.13;1.03;;;21.20;38.30;;;;;;10281647;28;20373;-74
2023/08/04 23:44:04;;;;;;;1.00;1.00;;;21.20;37.60;;;;;;10274002;28;20239;-74
2023/08/04 23:49:07;;;;;;;1.27;1.10;;;21.10;38.40;;;;;;10258697;28;20243;-74
2023/08/04 23:54:10;;;;;;;1.53;1.10;;;21.00;37.90;;;;;;10276885;28;20565;-73
2023/08/04 23:59:15;;;;;;;1.40;1.10;;;21.00;38.30;;;;;;10271885;28;20727;-74
